sensor_id;sensor_type;location;lat;lon;timestamp;P1;durP1;ratioP1;P2;durP2;ratioP2
48703;SDS011;34502;51.296;16.918;2023-02-13T00:02:15;22.17;;;9.20;;
48703;SDS011;34502;51.296;16.918;2023-02-13T00:04:41;20.48;;;9.05;;
48703;SDS011;34502;51.296;16.918;2023-02-13T00:07:08;18.95;;;8.98;;
48703;SDS011;34502;51.296;16.918;2023-02-13T00:09:37;16.33;;;8.13;;
48703;SDS011;34502;51.296;16.918;2023-02-13T00:12:04;21.30;;;8.82;;
48703;SDS011;34502;51.296;16.918;2023-02-13T00:14:33;18.70;;;8.95;;
48703;SDS011;34502;51.296;16.918;2023-02-13T00:17:00;20.83;;;8.95;;
48703;SDS011;34502;51.296;16.918;2023-02-13T00:19:26;19.35;;;9.63;;
48703;SDS011;34502;51.296;16.918;2023-02-13T00:21:52;20.08;;;7.65;;
48703;SDS011;34502;51.296;16.918;2023-02-13T00:24:18;13.38;;;7.07;;
48703;SDS011;34502;51.296;16.918;2023-02-13T00:26:45;16.38;;;7.47;;
48703;SDS011;34502;51.296;16.918;2023-02-13T00:29:11;14.32;;;6.57;;
48703;SDS011;34502;51.296;16.918;2023-02-13T00:31:37;16.27;;;8.80;;
48703;SDS011;34502;51.296;16.918;2023-02-13T00:34:03;20.13;;;9.27;;
48703;SDS011;34502;51.296;16.918;2023-02-13T00:36:29;20.35;;;8.77;;
48703;SDS011;34502;51.296;16.918;2023-02-13T00:38:55;17.83;;;7.75;;
48703;SDS011;34502;51.296;16.918;2023-02-13T00:41:21;15.02;;;8.10;;
48703;SDS011;34502;51.296;16.918;2023-02-13T00:43:48;16.02;;;7.03;;
48703;SDS011;34502;51.296;16.918;2023-02-13T00:46:14;12.70;;;7.28;;
48703;SDS011;34502;51.296;16.918;2023-02-13T00:48:41;15.63;;;8.10;;
48703;SDS011;34502;51.296;16.918;2023-02-13T00:51:07;21.02;;;8.57;;
48703;SDS011;34502;51.296;16.918;2023-02-13T00:53:35;18.00;;;8.57;;
48703;SDS011;34502;51.296;16.918;2023-02-13T00:56:01;18.83;;;8.50;;
48703;SDS011;34502;51.296;16.918;2023-02-13T00:58:28;23.70;;;8.55;;
48703;SDS011;34502;51.296;16.918;2023-02-13T01:00:54;14.90;;;8.65;;
48703;SDS011;34502;51.296;16.918;2023-02-13T01:03:20;17.10;;;8.40;;
48703;SDS011;34502;51.296;16.918;2023-02-13T01:05:46;17.08;;;7.78;;
48703;SDS011;34502;51.296;16.918;2023-02-13T01:08:13;21.05;;;7.88;;
48703;SDS011;34502;51.296;16.918;2023-02-13T01:10:40;21.83;;;8.50;;
48703;SDS011;34502;51.296;16.918;2023-02-13T01:13:08;23.13;;;9.15;;
48703;SDS011;34502;51.296;16.918;2023-02-13T01:15:34;14.98;;;7.72;;
48703;SDS011;34502;51.296;16.918;2023-02-13T01:18:02;18.20;;;8.23;;
48703;SDS011;34502;51.296;16.918;2023-02-13T01:20:28;15.93;;;8.07;;
48703;SDS011;34502;51.296;16.918;2023-02-13T01:22:55;16.00;;;7.50;;
48703;SDS011;34502;51.296;16.918;2023-02-13T01:25:22;12.52;;;7.57;;
48703;SDS011;34502;51.296;16.918;2023-02-13T01:27:48;16.98;;;7.85;;
48703;SDS011;34502;51.296;16.918;2023-02-13T01:30:15;16.58;;;8.38;;
48703;SDS011;34502;51.296;16.918;2023-02-13T01:32:42;19.23;;;8.00;;
48703;SDS011;34502;51.296;16.918;2023-02-13T01:35:10;17.33;;;8.25;;
48703;SDS011;34502;51.296;16.918;2023-02-13T01:37:37;16.33;;;9.02;;
48703;SDS011;34502;51.296;16.918;2023-02-13T01:40:03;18.63;;;8.80;;
48703;SDS011;34502;51.296;16.918;2023-02-13T01:42:31;12.15;;;7.55;;
48703;SDS011;34502;51.296;16.918;2023-02-13T01:44:59;18.85;;;8.80;;
48703;SDS011;34502;51.296;16.918;2023-02-13T01:47:26;19.00;;;8.05;;
48703;SDS011;34502;51.296;16.918;2023-02-13T01:53:18;15.48;;;8.77;;
48703;SDS011;34502;51.296;16.918;2023-02-13T01:55:59;14.10;;;8.20;;
48703;SDS011;34502;51.296;16.918;2023-02-13T01:58:29;15.88;;;7.65;;
48703;SDS011;34502;51.296;16.918;2023-02-13T02:00:57;16.13;;;9.00;;
48703;SDS011;34502;51.296;16.918;2023-02-13T02:03:29;17.17;;;8.73;;
48703;SDS011;34502;51.296;16.918;2023-02-13T02:05:56;15.80;;;8.52;;
48703;SDS011;34502;51.296;16.918;2023-02-13T02:08:23;14.90;;;8.35;;
48703;SDS011;34502;51.296;16.918;2023-02-13T02:10:49;18.20;;;9.38;;
48703;SDS011;34502;51.296;16.918;2023-02-13T02:13:16;17.92;;;9.40;;
48703;SDS011;34502;51.296;16.918;2023-02-13T02:15:44;17.55;;;8.65;;
48703;SDS011;34502;51.296;16.918;2023-02-13T02:18:19;16.75;;;9.90;;
48703;SDS011;34502;51.296;16.918;2023-02-13T02:31:59;17.92;;;11.20;;
48703;SDS011;34502;51.296;16.918;2023-02-13T02:40:17;18.85;;;10.63;;
48703;SDS011;34502;51.296;16.918;2023-02-13T02:45:52;20.17;;;10.38;;
48703;SDS011;34502;51.296;16.918;2023-02-13T02:52:02;20.52;;;10.55;;
48703;SDS011;34502;51.296;16.918;2023-02-13T02:54:33;19.33;;;11.20;;
48703;SDS011;34502;51.296;16.918;2023-02-13T02:57:31;26.48;;;11.75;;
48703;SDS011;34502;51.296;16.918;2023-02-13T03:00:31;18.75;;;10.63;;
48703;SDS011;34502;51.296;16.918;2023-02-13T03:03:17;21.85;;;12.55;;
48703;SDS011;34502;51.296;16.918;2023-02-13T03:06:05;16.27;;;10.90;;
48703;SDS011;34502;51.296;16.918;2023-02-13T03:08:56;20.23;;;12.38;;
48703;SDS011;34502;51.296;16.918;2023-02-13T03:11:43;23.60;;;13.23;;
48703;SDS011;34502;51.296;16.918;2023-02-13T03:14:34;19.23;;;12.50;;
48703;SDS011;34502;51.296;16.918;2023-02-13T03:17:00;23.13;;;13.00;;
48703;SDS011;34502;51.296;16.918;2023-02-13T03:22:53;23.92;;;14.32;;
48703;SDS011;34502;51.296;16.918;2023-02-13T03:33:55;26.58;;;15.15;;
48703;SDS011;34502;51.296;16.918;2023-02-13T03:36:39;24.38;;;14.52;;
48703;SDS011;34502;51.296;16.918;2023-02-13T03:39:34;22.88;;;14.48;;
48703;SDS011;34502;51.296;16.918;2023-02-13T03:42:23;23.85;;;15.20;;
48703;SDS011;34502;51.296;16.918;2023-02-13T03:45:06;28.60;;;16.20;;
48703;SDS011;34502;51.296;16.918;2023-02-13T03:48:31;25.08;;;15.77;;
48703;SDS011;34502;51.296;16.918;2023-02-13T03:51:20;25.90;;;16.17;;
48703;SDS011;34502;51.296;16.918;2023-02-13T03:53:59;21.63;;;15.40;;
48703;SDS011;34502;51.296;16.918;2023-02-13T03:56:35;22.45;;;14.43;;
48703;SDS011;34502;51.296;16.918;2023-02-13T03:59:25;26.33;;;14.73;;
48703;SDS011;34502;51.296;16.918;2023-02-13T04:02:00;29.70;;;14.73;;
48703;SDS011;34502;51.296;16.918;2023-02-13T04:04:33;23.02;;;13.70;;
48703;SDS011;34502;51.296;16.918;2023-02-13T04:07:19;23.80;;;13.13;;
48703;SDS011;34502;51.296;16.918;2023-02-13T04:10:06;22.30;;;14.20;;
48703;SDS011;34502;51.296;16.918;2023-02-13T04:12:39;26.92;;;15.15;;
48703;SDS011;34502;51.296;16.918;2023-02-13T04:15:26;21.90;;;13.60;;
48703;SDS011;34502;51.296;16.918;2023-02-13T04:18:10;21.83;;;14.50;;
48703;SDS011;34502;51.296;16.918;2023-02-13T04:20:39;23.17;;;15.20;;
48703;SDS011;34502;51.296;16.918;2023-02-13T04:23:06;21.40;;;14.38;;
48703;SDS011;34502;51.296;16.918;2023-02-13T04:25:34;22.52;;;15.18;;
48703;SDS011;34502;51.296;16.918;2023-02-13T04:28:03;25.02;;;15.90;;
48703;SDS011;34502;51.296;16.918;2023-02-13T04:30:29;23.17;;;15.57;;
48703;SDS011;34502;51.296;16.918;2023-02-13T04:32:55;24.10;;;15.25;;
48703;SDS011;34502;51.296;16.918;2023-02-13T04:35:21;20.95;;;13.88;;
48703;SDS011;34502;51.296;16.918;2023-02-13T04:37:47;18.15;;;13.40;;
48703;SDS011;34502;51.296;16.918;2023-02-13T04:40:13;22.65;;;14.77;;
48703;SDS011;34502;51.296;16.918;2023-02-13T04:42:39;22.45;;;15.15;;
48703;SDS011;34502;51.296;16.918;2023-02-13T04:45:05;19.95;;;14.30;;
48703;SDS011;34502;51.296;16.918;2023-02-13T04:47:32;17.73;;;13.40;;
48703;SDS011;34502;51.296;16.918;2023-02-13T04:49:58;18.63;;;14.35;;
48703;SDS011;34502;51.296;16.918;2023-02-13T04:52:24;22.42;;;15.15;;
48703;SDS011;34502;51.296;16.918;2023-02-13T04:54:50;25.50;;;15.63;;
48703;SDS011;34502;51.296;16.918;2023-02-13T04:57:16;22.98;;;14.98;;
48703;SDS011;34502;51.296;16.918;2023-02-13T04:59:42;23.60;;;15.05;;
48703;SDS011;34502;51.296;16.918;2023-02-13T05:02:08;25.98;;;14.82;;
48703;SDS011;34502;51.296;16.918;2023-02-13T05:04:34;25.23;;;16.02;;
48703;SDS011;34502;51.296;16.918;2023-02-13T05:07:01;24.27;;;15.93;;
48703;SDS011;34502;51.296;16.918;2023-02-13T05:09:27;24.30;;;15.10;;
48703;SDS011;34502;51.296;16.918;2023-02-13T05:11:53;22.88;;;15.35;;
48703;SDS011;34502;51.296;16.918;2023-02-13T05:14:19;26.15;;;15.77;;
48703;SDS011;34502;51.296;16.918;2023-02-13T05:16:45;23.10;;;15.82;;
48703;SDS011;34502;51.296;16.918;2023-02-13T05:19:13;26.38;;;16.90;;
48703;SDS011;34502;51.296;16.918;2023-02-13T05:21:40;25.48;;;16.48;;
48703;SDS011;34502;51.296;16.918;2023-02-13T05:24:25;26.08;;;17.02;;
48703;SDS011;34502;51.296;16.918;2023-02-13T05:26:51;21.77;;;15.75;;
48703;SDS011;34502;51.296;16.918;2023-02-13T05:29:17;28.25;;;17.00;;
48703;SDS011;34502;51.296;16.918;2023-02-13T05:31:44;27.73;;;16.98;;
48703;SDS011;34502;51.296;16.918;2023-02-13T05:34:10;27.45;;;17.75;;
48703;SDS011;34502;51.296;16.918;2023-02-13T05:36:36;28.48;;;17.55;;
48703;SDS011;34502;51.296;16.918;2023-02-13T05:39:03;33.17;;;19.33;;
48703;SDS011;34502;51.296;16.918;2023-02-13T05:41:30;30.77;;;18.25;;
48703;SDS011;34502;51.296;16.918;2023-02-13T05:43:56;25.02;;;16.50;;
48703;SDS011;34502;51.296;16.918;2023-02-13T05:46:22;29.70;;;18.52;;
48703;SDS011;34502;51.296;16.918;2023-02-13T05:48:48;28.08;;;19.02;;
48703;SDS011;34502;51.296;16.918;2023-02-13T05:51:15;32.10;;;18.83;;
48703;SDS011;34502;51.296;16.918;2023-02-13T05:53:42;30.02;;;18.75;;
48703;SDS011;34502;51.296;16.918;2023-02-13T05:56:08;34.08;;;19.45;;
48703;SDS011;34502;51.296;16.918;2023-02-13T05:58:34;29.27;;;18.42;;
48703;SDS011;34502;51.296;16.918;2023-02-13T06:01:00;35.58;;;20.38;;
48703;SDS011;34502;51.296;16.918;2023-02-13T06:03:27;34.65;;;19.25;;
48703;SDS011;34502;51.296;16.918;2023-02-13T06:05:54;31.83;;;19.05;;
48703;SDS011;34502;51.296;16.918;2023-02-13T06:08:21;31.70;;;19.60;;
48703;SDS011;34502;51.296;16.918;2023-02-13T06:10:47;30.08;;;18.20;;
48703;SDS011;34502;51.296;16.918;2023-02-13T06:13:14;31.45;;;18.63;;
48703;SDS011;34502;51.296;16.918;2023-02-13T06:15:40;36.35;;;20.33;;
48703;SDS011;34502;51.296;16.918;2023-02-13T06:18:07;41.72;;;21.10;;
48703;SDS011;34502;51.296;16.918;2023-02-13T06:20:33;33.72;;;20.05;;
48703;SDS011;34502;51.296;16.918;2023-02-13T06:22:59;34.65;;;19.65;;
48703;SDS011;34502;51.296;16.918;2023-02-13T06:25:26;40.83;;;20.88;;
48703;SDS011;34502;51.296;16.918;2023-02-13T06:27:52;46.42;;;21.83;;
48703;SDS011;34502;51.296;16.918;2023-02-13T06:30:18;43.83;;;22.95;;
48703;SDS011;34502;51.296;16.918;2023-02-13T06:32:45;41.38;;;21.50;;
48703;SDS011;34502;51.296;16.918;2023-02-13T06:35:12;36.40;;;20.83;;
48703;SDS011;34502;51.296;16.918;2023-02-13T06:37:38;39.10;;;21.77;;
48703;SDS011;34502;51.296;16.918;2023-02-13T06:40:06;44.28;;;21.30;;
48703;SDS011;34502;51.296;16.918;2023-02-13T06:42:32;39.10;;;21.73;;
48703;SDS011;34502;51.296;16.918;2023-02-13T06:44:58;46.45;;;21.70;;
48703;SDS011;34502;51.296;16.918;2023-02-13T06:47:24;43.13;;;20.80;;
48703;SDS011;34502;51.296;16.918;2023-02-13T06:49:51;39.33;;;21.73;;
48703;SDS011;34502;51.296;16.918;2023-02-13T06:52:17;41.72;;;22.08;;
48703;SDS011;34502;51.296;16.918;2023-02-13T06:54:43;40.15;;;22.20;;
48703;SDS011;34502;51.296;16.918;2023-02-13T06:57:09;41.35;;;23.25;;
48703;SDS011;34502;51.296;16.918;2023-02-13T06:59:35;52.22;;;24.98;;
48703;SDS011;34502;51.296;16.918;2023-02-13T07:02:02;60.15;;;23.80;;
48703;SDS011;34502;51.296;16.918;2023-02-13T07:04:28;44.10;;;23.08;;
48703;SDS011;34502;51.296;16.918;2023-02-13T07:06:54;49.05;;;23.00;;
48703;SDS011;34502;51.296;16.918;2023-02-13T07:09:21;45.50;;;23.38;;
48703;SDS011;34502;51.296;16.918;2023-02-13T07:11:48;48.13;;;24.23;;
48703;SDS011;34502;51.296;16.918;2023-02-13T07:14:14;45.88;;;23.35;;
48703;SDS011;34502;51.296;16.918;2023-02-13T07:16:40;54.13;;;24.20;;
48703;SDS011;34502;51.296;16.918;2023-02-13T07:19:06;46.08;;;23.45;;
48703;SDS011;34502;51.296;16.918;2023-02-13T07:21:32;43.65;;;24.75;;
48703;SDS011;34502;51.296;16.918;2023-02-13T07:23:58;44.15;;;22.80;;
48703;SDS011;34502;51.296;16.918;2023-02-13T07:26:25;52.20;;;25.10;;
48703;SDS011;34502;51.296;16.918;2023-02-13T07:28:52;47.80;;;24.15;;
48703;SDS011;34502;51.296;16.918;2023-02-13T07:31:18;42.88;;;22.65;;
48703;SDS011;34502;51.296;16.918;2023-02-13T07:33:46;44.25;;;23.23;;
48703;SDS011;34502;51.296;16.918;2023-02-13T07:36:13;39.67;;;21.70;;
48703;SDS011;34502;51.296;16.918;2023-02-13T07:38:39;42.63;;;22.50;;
48703;SDS011;34502;51.296;16.918;2023-02-13T07:41:05;39.30;;;22.15;;
48703;SDS011;34502;51.296;16.918;2023-02-13T07:43:32;35.00;;;20.17;;
48703;SDS011;34502;51.296;16.918;2023-02-13T07:45:58;38.17;;;20.40;;
48703;SDS011;34502;51.296;16.918;2023-02-13T07:48:25;37.67;;;21.20;;
48703;SDS011;34502;51.296;16.918;2023-02-13T07:50:53;39.10;;;22.05;;
48703;SDS011;34502;51.296;16.918;2023-02-13T07:53:23;34.15;;;19.80;;
48703;SDS011;34502;51.296;16.918;2023-02-13T07:55:49;32.65;;;19.45;;
48703;SDS011;34502;51.296;16.918;2023-02-13T07:58:15;33.00;;;19.35;;
48703;SDS011;34502;51.296;16.918;2023-02-13T08:00:41;39.28;;;20.45;;
48703;SDS011;34502;51.296;16.918;2023-02-13T08:03:08;35.72;;;21.20;;
48703;SDS011;34502;51.296;16.918;2023-02-13T08:05:34;35.20;;;18.92;;
48703;SDS011;34502;51.296;16.918;2023-02-13T08:08:00;34.13;;;18.80;;
48703;SDS011;34502;51.296;16.918;2023-02-13T08:10:27;37.17;;;20.38;;
48703;SDS011;34502;51.296;16.918;2023-02-13T08:13:11;30.42;;;17.73;;
48703;SDS011;34502;51.296;16.918;2023-02-13T08:15:38;29.67;;;16.33;;
48703;SDS011;34502;51.296;16.918;2023-02-13T08:18:05;32.42;;;16.70;;
48703;SDS011;34502;51.296;16.918;2023-02-13T08:20:31;24.38;;;15.40;;
48703;SDS011;34502;51.296;16.918;2023-02-13T08:23:01;26.20;;;15.30;;
48703;SDS011;34502;51.296;16.918;2023-02-13T08:25:28;27.15;;;15.88;;
48703;SDS011;34502;51.296;16.918;2023-02-13T08:27:54;29.48;;;16.63;;
48703;SDS011;34502;51.296;16.918;2023-02-13T08:30:20;24.35;;;15.82;;
48703;SDS011;34502;51.296;16.918;2023-02-13T08:32:46;27.80;;;16.08;;
48703;SDS011;34502;51.296;16.918;2023-02-13T08:35:13;31.25;;;20.05;;
48703;SDS011;34502;51.296;16.918;2023-02-13T08:37:39;32.40;;;25.02;;
48703;SDS011;34502;51.296;16.918;2023-02-13T08:40:05;30.77;;;22.58;;
48703;SDS011;34502;51.296;16.918;2023-02-13T08:42:34;19.85;;;12.93;;
48703;SDS011;34502;51.296;16.918;2023-02-13T08:45:01;19.27;;;12.25;;
48703;SDS011;34502;51.296;16.918;2023-02-13T08:47:27;14.98;;;8.65;;
48703;SDS011;34502;51.296;16.918;2023-02-13T08:49:53;7.93;;;5.65;;
48703;SDS011;34502;51.296;16.918;2023-02-13T08:52:19;14.98;;;7.30;;
48703;SDS011;34502;51.296;16.918;2023-02-13T08:54:45;10.13;;;6.97;;
48703;SDS011;34502;51.296;16.918;2023-02-13T08:57:11;12.45;;;8.20;;
48703;SDS011;34502;51.296;16.918;2023-02-13T08:59:37;10.45;;;7.15;;
48703;SDS011;34502;51.296;16.918;2023-02-13T09:02:04;10.50;;;7.03;;
48703;SDS011;34502;51.296;16.918;2023-02-13T09:04:30;10.25;;;5.75;;
48703;SDS011;34502;51.296;16.918;2023-02-13T09:06:56;9.35;;;5.88;;
48703;SDS011;34502;51.296;16.918;2023-02-13T09:09:22;12.45;;;6.82;;
48703;SDS011;34502;51.296;16.918;2023-02-13T09:11:48;21.20;;;11.02;;
48703;SDS011;34502;51.296;16.918;2023-02-13T09:14:15;12.43;;;6.18;;
48703;SDS011;34502;51.296;16.918;2023-02-13T09:16:41;9.07;;;5.00;;
48703;SDS011;34502;51.296;16.918;2023-02-13T09:19:07;7.43;;;4.38;;
48703;SDS011;34502;51.296;16.918;2023-02-13T09:21:34;6.90;;;5.30;;
48703;SDS011;34502;51.296;16.918;2023-02-13T09:24:00;10.00;;;5.50;;
48703;SDS011;34502;51.296;16.918;2023-02-13T09:26:27;13.50;;;8.82;;
48703;SDS011;34502;51.296;16.918;2023-02-13T09:28:53;12.32;;;8.35;;
48703;SDS011;34502;51.296;16.918;2023-02-13T09:31:19;7.30;;;5.97;;
48703;SDS011;34502;51.296;16.918;2023-02-13T09:33:47;7.63;;;6.13;;
48703;SDS011;34502;51.296;16.918;2023-02-13T09:36:18;7.68;;;5.43;;
48703;SDS011;34502;51.296;16.918;2023-02-13T09:38:52;11.07;;;7.03;;
48703;SDS011;34502;51.296;16.918;2023-02-13T09:41:20;17.02;;;9.63;;
48703;SDS011;34502;51.296;16.918;2023-02-13T09:43:55;10.55;;;6.47;;
48703;SDS011;34502;51.296;16.918;2023-02-13T09:46:28;14.38;;;9.30;;
48703;SDS011;34502;51.296;16.918;2023-02-13T09:48:58;20.00;;;12.70;;
48703;SDS011;34502;51.296;16.918;2023-02-13T09:51:26;18.27;;;8.73;;
48703;SDS011;34502;51.296;16.918;2023-02-13T09:53:53;33.05;;;19.85;;
48703;SDS011;34502;51.296;16.918;2023-02-13T10:10:30;13.15;;;6.85;;
48703;SDS011;34502;51.296;16.918;2023-02-13T10:18:44;13.80;;;6.50;;
48703;SDS011;34502;51.296;16.918;2023-02-13T10:21:13;10.60;;;6.63;;
48703;SDS011;34502;51.296;16.918;2023-02-13T10:23:43;9.40;;;4.88;;
48703;SDS011;34502;51.296;16.918;2023-02-13T10:26:21;18.92;;;9.57;;
48703;SDS011;34502;51.296;16.918;2023-02-13T10:29:06;9.57;;;6.38;;
48703;SDS011;34502;51.296;16.918;2023-02-13T10:35:23;6.45;;;4.85;;
48703;SDS011;34502;51.296;16.918;2023-02-13T10:37:54;12.35;;;7.18;;
48703;SDS011;34502;51.296;16.918;2023-02-13T10:40:23;10.07;;;5.60;;
48703;SDS011;34502;51.296;16.918;2023-02-13T10:43:31;14.60;;;7.30;;
48703;SDS011;34502;51.296;16.918;2023-02-13T10:48:41;21.58;;;13.15;;
48703;SDS011;34502;51.296;16.918;2023-02-13T10:51:21;9.50;;;5.60;;
48703;SDS011;34502;51.296;16.918;2023-02-13T10:53:57;16.23;;;9.23;;
48703;SDS011;34502;51.296;16.918;2023-02-13T10:56:47;17.65;;;9.63;;
48703;SDS011;34502;51.296;16.918;2023-02-13T11:04:45;12.70;;;5.60;;
48703;SDS011;34502;51.296;16.918;2023-02-13T11:07:22;8.27;;;5.82;;
48703;SDS011;34502;51.296;16.918;2023-02-13T11:09:49;6.93;;;5.10;;
48703;SDS011;34502;51.296;16.918;2023-02-13T11:14:53;6.32;;;4.85;;
48703;SDS011;34502;51.296;16.918;2023-02-13T11:17:19;10.48;;;6.25;;
48703;SDS011;34502;51.296;16.918;2023-02-13T11:19:56;11.55;;;7.68;;
48703;SDS011;34502;51.296;16.918;2023-02-13T11:22:31;8.55;;;6.63;;
48703;SDS011;34502;51.296;16.918;2023-02-13T11:25:03;9.40;;;5.63;;
48703;SDS011;34502;51.296;16.918;2023-02-13T11:27:37;8.15;;;5.30;;
48703;SDS011;34502;51.296;16.918;2023-02-13T11:30:05;7.07;;;5.40;;
48703;SDS011;34502;51.296;16.918;2023-02-13T11:33:06;9.02;;;6.05;;
48703;SDS011;34502;51.296;16.918;2023-02-13T11:35:47;9.82;;;6.53;;
48703;SDS011;34502;51.296;16.918;2023-02-13T11:40:46;5.82;;;4.13;;
48703;SDS011;34502;51.296;16.918;2023-02-13T11:45:58;7.00;;;5.40;;
48703;SDS011;34502;51.296;16.918;2023-02-13T11:48:29;14.30;;;8.10;;
48703;SDS011;34502;51.296;16.918;2023-02-13T11:50:55;8.90;;;5.57;;
48703;SDS011;34502;51.296;16.918;2023-02-13T11:53:23;9.75;;;7.38;;
48703;SDS011;34502;51.296;16.918;2023-02-13T11:56:01;6.45;;;5.22;;
48703;SDS011;34502;51.296;16.918;2023-02-13T11:58:32;9.70;;;5.47;;
48703;SDS011;34502;51.296;16.918;2023-02-13T12:03:43;13.30;;;6.30;;
48703;SDS011;34502;51.296;16.918;2023-02-13T12:06:20;12.88;;;6.15;;
48703;SDS011;34502;51.296;16.918;2023-02-13T12:08:47;11.57;;;5.57;;
48703;SDS011;34502;51.296;16.918;2023-02-13T12:11:21;17.52;;;7.50;;
48703;SDS011;34502;51.296;16.918;2023-02-13T12:14:23;19.90;;;7.00;;
48703;SDS011;34502;51.296;16.918;2023-02-13T12:16:53;14.95;;;6.82;;
48703;SDS011;34502;51.296;16.918;2023-02-13T12:19:23;19.85;;;8.18;;
48703;SDS011;34502;51.296;16.918;2023-02-13T12:27:17;17.58;;;9.75;;
48703;SDS011;34502;51.296;16.918;2023-02-13T12:38:43;38.88;;;19.42;;
48703;SDS011;34502;51.296;16.918;2023-02-13T12:41:37;14.98;;;9.45;;
48703;SDS011;34502;51.296;16.918;2023-02-13T12:47:30;11.95;;;6.75;;
48703;SDS011;34502;51.296;16.918;2023-02-13T12:55:54;49.67;;;21.48;;
48703;SDS011;34502;51.296;16.918;2023-02-13T13:22:34;55.47;;;22.52;;
48703;SDS011;34502;51.296;16.918;2023-02-13T13:28:53;14.18;;;10.02;;
48703;SDS011;34502;51.296;16.918;2023-02-13T13:31:04;22.13;;;12.40;;
48703;SDS011;34502;51.296;16.918;2023-02-13T13:33:31;23.85;;;13.00;;
48703;SDS011;34502;51.296;16.918;2023-02-13T13:49:55;19.45;;;10.57;;
48703;SDS011;34502;51.296;16.918;2023-02-13T13:54:52;20.92;;;11.00;;
48703;SDS011;34502;51.296;16.918;2023-02-13T13:57:20;23.50;;;11.45;;
48703;SDS011;34502;51.296;16.918;2023-02-13T13:59:57;18.23;;;10.52;;
48703;SDS011;34502;51.296;16.918;2023-02-13T14:02:26;26.23;;;11.02;;
48703;SDS011;34502;51.296;16.918;2023-02-13T14:07:41;52.00;;;20.40;;
48703;SDS011;34502;51.296;16.918;2023-02-13T14:12:49;18.98;;;9.07;;
48703;SDS011;34502;51.296;16.918;2023-02-13T14:17:59;15.88;;;9.00;;
48703;SDS011;34502;51.296;16.918;2023-02-13T14:28:35;10.13;;;7.10;;
48703;SDS011;34502;51.296;16.918;2023-02-13T14:31:09;12.27;;;7.90;;
48703;SDS011;34502;51.296;16.918;2023-02-13T14:34:04;34.47;;;15.50;;
48703;SDS011;34502;51.296;16.918;2023-02-13T14:36:32;13.90;;;7.93;;
48703;SDS011;34502;51.296;16.918;2023-02-13T14:46:46;6.88;;;5.18;;
48703;SDS011;34502;51.296;16.918;2023-02-13T14:49:18;8.05;;;5.90;;
48703;SDS011;34502;51.296;16.918;2023-02-13T14:51:50;7.72;;;5.78;;
48703;SDS011;34502;51.296;16.918;2023-02-13T14:54:25;20.13;;;9.27;;
48703;SDS011;34502;51.296;16.918;2023-02-13T14:56:54;64.55;;;30.60;;
48703;SDS011;34502;51.296;16.918;2023-02-13T14:59:32;19.70;;;10.68;;
48703;SDS011;34502;51.296;16.918;2023-02-13T15:02:04;8.43;;;5.30;;
48703;SDS011;34502;51.296;16.918;2023-02-13T15:04:40;10.25;;;6.03;;
48703;SDS011;34502;51.296;16.918;2023-02-13T15:07:16;12.18;;;7.38;;
48703;SDS011;34502;51.296;16.918;2023-02-13T15:09:47;8.60;;;5.72;;
48703;SDS011;34502;51.296;16.918;2023-02-13T15:12:26;9.48;;;6.03;;
48703;SDS011;34502;51.296;16.918;2023-02-13T15:14:59;11.55;;;7.72;;
48703;SDS011;34502;51.296;16.918;2023-02-13T15:17:31;15.07;;;9.20;;
48703;SDS011;34502;51.296;16.918;2023-02-13T15:22:38;46.85;;;22.92;;
48703;SDS011;34502;51.296;16.918;2023-02-13T15:25:06;34.80;;;18.35;;
48703;SDS011;34502;51.296;16.918;2023-02-13T15:27:35;32.08;;;17.33;;
48703;SDS011;34502;51.296;16.918;2023-02-13T15:30:18;24.75;;;13.55;;
48703;SDS011;34502;51.296;16.918;2023-02-13T15:32:52;19.30;;;10.55;;
48703;SDS011;34502;51.296;16.918;2023-02-13T15:35:23;20.00;;;11.98;;
48703;SDS011;34502;51.296;16.918;2023-02-13T15:38:22;27.05;;;13.02;;
48703;SDS011;34502;51.296;16.918;2023-02-13T15:40:50;28.90;;;15.20;;
48703;SDS011;34502;51.296;16.918;2023-02-13T15:43:25;37.88;;;20.35;;
48703;SDS011;34502;51.296;16.918;2023-02-13T15:45:55;16.95;;;10.60;;
48703;SDS011;34502;51.296;16.918;2023-02-13T15:48:31;22.15;;;12.15;;
48703;SDS011;34502;51.296;16.918;2023-02-13T15:50:58;23.00;;;13.73;;
48703;SDS011;34502;51.296;16.918;2023-02-13T15:53:25;21.40;;;12.30;;
48703;SDS011;34502;51.296;16.918;2023-02-13T15:56:34;25.17;;;13.70;;
48703;SDS011;34502;51.296;16.918;2023-02-13T15:58:41;44.85;;;23.33;;
48703;SDS011;34502;51.296;16.918;2023-02-13T16:01:07;35.72;;;18.83;;
48703;SDS011;34502;51.296;16.918;2023-02-13T16:03:34;30.17;;;16.45;;
48703;SDS011;34502;51.296;16.918;2023-02-13T16:06:01;26.85;;;13.60;;
48703;SDS011;34502;51.296;16.918;2023-02-13T16:08:33;32.95;;;15.60;;
48703;SDS011;34502;51.296;16.918;2023-02-13T16:16:35;70.00;;;31.77;;
48703;SDS011;34502;51.296;16.918;2023-02-13T16:19:21;63.50;;;27.25;;
48703;SDS011;34502;51.296;16.918;2023-02-13T16:21:51;52.63;;;23.45;;
48703;SDS011;34502;51.296;16.918;2023-02-13T16:24:19;33.90;;;17.77;;
48703;SDS011;34502;51.296;16.918;2023-02-13T16:26:46;21.00;;;10.98;;
48703;SDS011;34502;51.296;16.918;2023-02-13T16:29:17;49.97;;;24.55;;
48703;SDS011;34502;51.296;16.918;2023-02-13T16:31:45;104.60;;;46.58;;
48703;SDS011;34502;51.296;16.918;2023-02-13T16:34:13;110.57;;;47.95;;
48703;SDS011;34502;51.296;16.918;2023-02-13T16:36:49;65.22;;;29.70;;
48703;SDS011;34502;51.296;16.918;2023-02-13T16:39:17;51.75;;;22.15;;
48703;SDS011;34502;51.296;16.918;2023-02-13T16:41:45;65.28;;;30.58;;
48703;SDS011;34502;51.296;16.918;2023-02-13T16:47:11;66.00;;;33.75;;
48703;SDS011;34502;51.296;16.918;2023-02-13T16:49:50;30.48;;;15.05;;
48703;SDS011;34502;51.296;16.918;2023-02-13T16:52:19;27.10;;;16.92;;
48703;SDS011;34502;51.296;16.918;2023-02-13T16:59:51;13.25;;;9.13;;
48703;SDS011;34502;51.296;16.918;2023-02-13T17:02:20;14.55;;;10.30;;
48703;SDS011;34502;51.296;16.918;2023-02-13T17:04:55;13.88;;;9.07;;
48703;SDS011;34502;51.296;16.918;2023-02-13T17:07:27;16.55;;;9.90;;
48703;SDS011;34502;51.296;16.918;2023-02-13T17:09:56;16.83;;;9.35;;
48703;SDS011;34502;51.296;16.918;2023-02-13T17:12:24;12.73;;;7.78;;
48703;SDS011;34502;51.296;16.918;2023-02-13T17:14:51;14.57;;;8.13;;
48703;SDS011;34502;51.296;16.918;2023-02-13T17:17:18;17.80;;;9.27;;
48703;SDS011;34502;51.296;16.918;2023-02-13T17:19:46;11.57;;;7.05;;
48703;SDS011;34502;51.296;16.918;2023-02-13T17:22:18;10.75;;;7.45;;
48703;SDS011;34502;51.296;16.918;2023-02-13T17:24:44;11.60;;;8.57;;
48703;SDS011;34502;51.296;16.918;2023-02-13T17:27:10;14.63;;;9.45;;
48703;SDS011;34502;51.296;16.918;2023-02-13T17:29:36;14.32;;;9.15;;
48703;SDS011;34502;51.296;16.918;2023-02-13T17:32:02;20.98;;;9.73;;
48703;SDS011;34502;51.296;16.918;2023-02-13T17:34:29;14.70;;;8.98;;
48703;SDS011;34502;51.296;16.918;2023-02-13T17:36:55;18.17;;;9.90;;
48703;SDS011;34502;51.296;16.918;2023-02-13T17:39:21;14.50;;;9.85;;
48703;SDS011;34502;51.296;16.918;2023-02-13T17:41:47;14.70;;;9.88;;
48703;SDS011;34502;51.296;16.918;2023-02-13T17:44:13;14.18;;;10.07;;